Flight Track Log - Related Links

Times and Time Zones

All times are in EDT time to prevent confusion due to time zone crossing. See the A6-EDY flight status page for this flight to view local times or setup timezone preferences in your user account.

Time Position Orientation Groundspeed Altitude Reporting Facility
EDT Latitude Longitude Course Direction KTS MPH feet Rate Location/Type
Wed 09:54:45 AM 48.9962 2.5629 270° West 166 191 600  Level FlightAware ADS-B
Wed 09:54:58 AM 48.9954 2.5472 266° West 166 191 1,000 2,000 Climbing FlightAware ADS-B
Wed 09:55:03 AM 48.9952 2.5411 267° West 167 192 1,200 1,333 Climbing FlightAware ADS-B
Wed 09:55:07 AM 48.9952 2.5374 270° West 168 193 1,200 857 Level FlightAware ADS-B
Wed 09:55:10 AM 48.9955 2.5329 276° West 170 196 1,300 1,636 Climbing FlightAware ADS-B
Wed 09:55:18 AM 48.9969 2.5233 283° West 172 198 1,500 1,714 Climbing FlightAware ADS-B
Wed 09:55:31 AM 48.9995 2.5082 285° West 175 201 1,900 1,895 Climbing FlightAware ADS-B
Wed 09:55:37 AM 49.0007 2.5009 284° West 173 199 2,100 2,118 Climbing FlightAware ADS-B
Wed 09:55:48 AM 49.0022 2.4880 280° West 170 196 2,500 2,182 Climbing FlightAware ADS-B
Wed 09:55:59 AM 49.0033 2.4747 277° West 167 192 2,900 2,118 Climbing FlightAware ADS-B
Wed 09:56:05 AM 49.0038 2.4677 276° West 168 193 3,100 2,000 Climbing FlightAware ADS-B
Wed 09:56:08 AM 49.0039 2.4643 273° West 168 193 3,200 2,182 Climbing FlightAware ADS-B
Wed 09:56:16 AM 49.0036 2.4554 267° West 169 194 3,500 2,000 Climbing FlightAware ADS-B
Wed 09:56:26 AM 49.0028 2.4435 264° West 173 199 3,800 1,364 Climbing FlightAware ADS-B
Wed 09:56:38 AM 49.0015 2.4278 263° West 191 220 4,000 947 Climbing FlightAware ADS-B
Wed 09:56:45 AM 49.0004 2.4181 260° West 201 231 4,100 1,000 Climbing FlightAware ADS-B
Wed 09:56:50 AM 48.9993 2.4113 256° West 207 238 4,200 1,091 Climbing FlightAware ADS-B
Wed 09:56:56 AM 48.9977 2.4040 252° West 217 250 4,300 947 Climbing FlightAware ADS-B
Wed 09:57:09 AM 48.9924 2.3833 249° West 239 275 4,500 1,250 Climbing FlightAware ADS-B
Wed 09:57:20 AM 48.9886 2.3667 251° West 250 288 4,800 2,400 Climbing FlightAware ADS-B
Wed 09:57:24 AM 48.9870 2.3585 254° West 251 289 5,100 3,500 Climbing FlightAware ADS-B
Wed 09:57:32 AM 48.9848 2.3451 256° West 250 288 5,500 3,667 Climbing FlightAware ADS-B
Wed 09:57:42 AM 48.9828 2.3280 260° West 246 283 6,200 3,652 Climbing FlightAware ADS-B
Wed 09:57:55 AM 48.9811 2.3065 263° West 248 285 6,900 2,786 Climbing FlightAware ADS-B
Wed 09:58:10 AM 48.9796 2.2795 265° West 256 295 7,500 2,824 Climbing FlightAware ADS-B
Wed 09:58:29 AM 48.9776 2.2447 265° West 259 298 8,500 3,130 Climbing FlightAware ADS-B
Wed 09:58:33 AM 48.9766 2.2380 257° West 258 297 8,700 2,571 Climbing FlightAware ADS-B
Wed 09:58:36 AM 48.9754 2.2325 252° West 257 296 8,800 3,429 Climbing FlightAware ADS-B
Wed 09:58:40 AM 48.9732 2.2260 243° Southwest 256 295 9,100 3,429 Climbing FlightAware ADS-B
Wed 09:58:43 AM 48.9711 2.2211 236° Southwest 256 295 9,200 2,571 Climbing FlightAware ADS-B
Wed 09:58:47 AM 48.9689 2.2168 232° Southwest 257 296 9,400 2,571 Climbing FlightAware ADS-B
Wed 09:58:50 AM 48.9657 2.2122 224° Southwest 258 297 9,500 1,667 Climbing FlightAware ADS-B
Wed 09:59:05 AM 48.9496 2.1992 208° Southwest 264 304 9,900 1,579 Climbing FlightAware ADS-B
Wed 09:59:09 AM 48.9459 2.1979 193° South 265 305 10,000 857 Climbing FlightAware ADS-B
Wed 09:59:12 AM 48.9421 2.1973 186° South 268 308 10,000 1,059 Level FlightAware ADS-B
Wed 09:59:26 AM 48.9244 2.2017 171° South 275 316 10,300 1,304 Climbing FlightAware ADS-B
Wed 09:59:35 AM 48.9127 2.2090 157° South 302 348 10,500 1,000 Climbing FlightAware ADS-B
Wed 09:59:44 AM 48.9019 2.2184 150° Southeast 318 366 10,600 706 Climbing FlightAware ADS-B
Wed 09:59:52 AM 48.8919 2.2304 142° Southeast 333 383 10,700 667 Climbing FlightAware ADS-B
Wed 10:00:02 AM 48.8825 2.2470 131° Southeast 351 404 10,800 857 Climbing FlightAware ADS-B
Wed 10:00:13 AM 48.8741 2.2720 117° Southeast 370 426 11,000 1,071 Climbing FlightAware ADS-B
Wed 10:00:30 AM 48.8698 2.3165 98° East 390 449 11,300 1,660 Climbing FlightAware ADS-B
Wed 10:01:00 AM 48.8670 2.4022 93° East 407 468 12,300 2,066 Climbing FlightAware ADS-B
Wed 10:01:31 AM 48.8635 2.4917 93° East 419 482 13,400 2,129 Climbing FlightAware ADS-B
Wed 10:02:02 AM 48.8595 2.5833 94° East 432 497 14,500 1,909 Climbing FlightAware ADS-B
Wed 10:02:37 AM 48.8550 2.6770 94° East 445 512 15,500 2,240 Climbing FlightAware ADS-B
Wed 10:03:17 AM 48.8486 2.8171 94° East 444 511 17,300 2,400 Climbing FlightAware ADS-B
Wed 10:03:47 AM 48.8438 2.9150 94° East 466 536 18,300 1,626 Climbing FlightAware ADS-B
Wed 10:05:52 AM 48.8240 3.3060 94° East 505 581 21,500 1,588 Climbing FlightAware ADS-B
Wed 10:06:37 AM 48.8150 3.4810 94° East 519 597 22,800 1,800 Climbing FlightAware ADS-B
Wed 10:07:32 AM 48.8030 3.6840 95° East 527 606 24,500 1,800 Climbing FlightAware ADS-B
Wed 10:08:07 AM 48.7940 3.8160 96° East 534 615 25,500 1,765 Climbing FlightAware ADS-B
Wed 10:08:57 AM 48.7820 3.9930 96° East 533 613 27,000 1,667 Climbing FlightAware ADS-B
Wed 10:09:37 AM 48.7640 4.1510 100° East 536 617 28,000 1,275 Climbing FlightAware ADS-B
Wed 10:10:17 AM 48.7160 4.2680 122° Southeast 536 617 28,700 975 Climbing FlightAware ADS-B
Wed 10:10:57 AM 48.6630 4.3810 125° Southeast 538 619 29,300 1,412 Climbing FlightAware ADS-B
Wed 10:11:42 AM 48.5860 4.5430 126° Southeast 543 625 30,700 1,600 Climbing FlightAware ADS-B
Wed 10:12:27 AM 48.5210 4.6810 125° Southeast 543 625 31,700 1,275 Climbing FlightAware ADS-B
Wed 10:13:02 AM 48.4790 4.7680 126° Southeast 537 618 32,400 1,575 Climbing FlightAware ADS-B
Wed 10:13:47 AM 48.4110 4.9260 123° Southeast 542 624 33,800 1,600 Climbing FlightAware ADS-B
Wed 10:14:32 AM 48.3610 5.0890 115° Southeast 546 628 34,800 847 Climbing FlightAware ADS-B
Wed 10:15:12 AM 48.3330 5.2170 108° East 548 631 35,000 141 Climbing FlightAware ADS-B
Wed 10:15:57 AM 48.3120 5.3810 101° East 550 633 35,000  Level FlightAware ADS-B
Wed 10:16:32 AM 48.3060 5.5320 93° East 548 631 35,000  Level FlightAware ADS-B
Wed 10:17:17 AM 48.3100 5.7030 88° East 548 631 35,000  Level FlightAware ADS-B
Wed 10:17:52 AM 48.3130 5.8400 88° East 548 631 35,000  Level FlightAware ADS-B
Wed 10:19:47 AM 48.2330 6.2530 106° East 548 631 35,000  Level FlightAware ADS-B
Wed 10:20:57 AM 48.1730 6.5080 109° East 546 628 35,000  Level FlightAware ADS-B
Wed 10:21:47 AM 48.1300 6.6860 110° East 547 629 35,000  Level FlightAware ADS-B
Wed 10:24:00 AM 48.0661 7.0874 103° East  Level Estimated
Wed 10:24:02 AM 48.0120 7.1670 103° East 546 628 35,000  Level FlightAware ADS-B
Wed 10:25:57 AM 47.9100 7.5760 104° East 550 633 35,000  Level FlightAware ADS-B
Wed 10:26:00 AM 47.9541 7.5219 104° East  Level Estimated
Wed 10:27:47 AM 47.8120 7.9640 110° East 547 629 35,000  Level FlightAware ADS-B
Wed 10:28:27 AM 47.7760 8.1020 111° Southeast 548 631 35,000  Level FlightAware ADS-B
Wed 10:29:27 AM 47.7240 8.3060 111° Southeast 549 632 35,000  Level FlightAware ADS-B
Wed 10:30:07 AM 47.6850 8.4540 111° Southeast 546 628 35,000  Level FlightAware ADS-B
Wed 10:30:52 AM 47.6510 8.6040 109° East 540 621 35,000  Level FlightAware ADS-B
Wed 10:31:32 AM 47.6240 8.7520 105° East 544 626 35,000  Level FlightAware ADS-B
Wed 10:32:12 AM 47.5970 8.8980 105° East 546 628 35,000  Level FlightAware ADS-B
Wed 10:32:57 AM 47.5670 9.0540 106° East 545 627 35,000  Level FlightAware ADS-B
Wed 10:33:32 AM 47.5420 9.1830 106° East 541 623 35,000  Level FlightAware ADS-B
Wed 10:34:17 AM 47.5120 9.3430 105° East 541 623 35,000  Level FlightAware ADS-B
Wed 10:34:57 AM 47.4840 9.4870 106° East 543 625 35,000  Level FlightAware ADS-B
Wed 10:35:42 AM 47.4530 9.6440 106° East 541 623 35,000  Level FlightAware ADS-B
Wed 10:36:22 AM 47.4260 9.7800 106° East 543 625 35,000  Level FlightAware ADS-B
Wed 10:37:07 AM 47.3930 9.9450 106° East 544 626 35,000  Level FlightAware ADS-B
Wed 10:37:47 AM 47.3640 10.0920 106° East 545 627 35,000  Level FlightAware ADS-B
Wed 10:38:27 AM 47.3350 10.2350 107° East 546 628 35,000  Level FlightAware ADS-B
Wed 10:39:07 AM 47.3130 10.3710 103° East 545 627 35,000  Level FlightAware ADS-B
Wed 10:40:02 AM 47.2870 10.5640 101° East 544 626 35,000  Level FlightAware ADS-B
Wed 10:40:47 AM 47.2630 10.7310 102° East 544 626 35,000  Level FlightAware ADS-B
Wed 10:41:32 AM 47.2400 10.8970 101° East 548 631 35,000  Level FlightAware ADS-B
Wed 10:42:12 AM 47.2200 11.0410 102° East 548 631 35,000  Level FlightAware ADS-B
Wed 10:43:22 AM 47.1830 11.2940 102° East 548 631 35,000  Level FlightAware ADS-B
Wed 10:43:57 AM 47.1640 11.4230 102° East 548 631 35,000  Level FlightAware ADS-B
Wed 10:44:47 AM 47.1380 11.6030 102° East 549 632 35,000  Level FlightAware ADS-B
Wed 10:45:42 AM 47.0980 11.7990 107° East 551 634 35,000  Level FlightAware ADS-B
Wed 10:46:22 AM 47.0550 11.9380 114° Southeast 553 636 35,000  Level FlightAware ADS-B
Wed 10:47:07 AM 47.0050 12.0870 116° Southeast 552 635 35,000  Level FlightAware ADS-B
Wed 10:48:12 AM 46.9320 12.3050 116° Southeast 551 634 35,000  Level FlightAware ADS-B
Wed 10:48:57 AM 46.8830 12.4530 116° Southeast 553 636 35,000  Level FlightAware ADS-B
Wed 10:49:37 AM 46.8360 12.5890 117° Southeast 552 635 35,000  Level FlightAware ADS-B
Wed 10:50:32 AM 46.7740 12.7730 116° Southeast 550 633 35,000  Level FlightAware ADS-B
Wed 10:51:07 AM 46.7330 12.8910 117° Southeast 550 633 35,000  Level FlightAware ADS-B
Wed 10:51:52 AM 46.6830 13.0350 117° Southeast 547 629 35,000  Level FlightAware ADS-B
Wed 10:52:37 AM 46.6300 13.1900 116° Southeast 548 631 35,000  Level FlightAware ADS-B
Wed 10:53:22 AM 46.5810 13.3480 114° Southeast 551 634 35,000  Level FlightAware ADS-B
Wed 10:54:02 AM 46.5390 13.4820 114° Southeast 551 634 35,000  Level FlightAware ADS-B
Wed 10:54:47 AM 46.4910 13.6320 115° Southeast 546 628 35,000  Level FlightAware ADS-B
Wed 10:55:27 AM 46.4480 13.7660 115° Southeast 547 629 35,000  Level FlightAware ADS-B
Wed 10:56:07 AM 46.4050 13.9000 115° Southeast 547 629 35,000  Level FlightAware ADS-B
Wed 10:56:52 AM 46.3570 14.0490 115° Southeast 547 629 35,000  Level FlightAware ADS-B
Wed 10:57:32 AM 46.3140 14.1820 115° Southeast 546 628 35,000  Level FlightAware ADS-B
Wed 10:58:17 AM 46.2640 14.3320 116° Southeast 547 629 35,000  Level FlightAware ADS-B
Wed 10:58:57 AM 46.2210 14.4650 115° Southeast 548 631 35,000  Level FlightAware ADS-B
Wed 10:59:37 AM 46.1780 14.5940 116° Southeast 549 632 35,000  Level FlightAware ADS-B
Wed 11:00:17 AM 46.1370 14.7190 115° Southeast 553 636 35,000  Level FlightAware ADS-B
Wed 11:01:12 AM 46.0750 14.9040 116° Southeast 553 636 35,000  Level FlightAware ADS-B
Wed 11:01:57 AM 46.0210 15.0620 116° Southeast 551 634 35,000  Level FlightAware ADS-B
Wed 11:02:42 AM 45.9720 15.2090 116° Southeast 551 634 35,000  Level FlightAware ADS-B
Wed 11:03:22 AM 45.9280 15.3380 116° Southeast 553 636 35,000  Level FlightAware ADS-B
Wed 11:04:02 AM 45.8820 15.4700 117° Southeast 554 638 35,000  Level FlightAware ADS-B
Wed 11:04:47 AM 45.8320 15.6160 116° Southeast 555 639 35,000  Level FlightAware ADS-B
Wed 11:05:27 AM 45.7860 15.7490 116° Southeast 554 638 35,000  Level FlightAware ADS-B
Wed 11:06:07 AM 45.7410 15.8790 116° Southeast 551 634 35,000  Level FlightAware ADS-B
Wed 11:06:52 AM 45.6890 16.0280 117° Southeast 553 636 35,000  Level FlightAware ADS-B
Wed 11:07:42 AM 45.6350 16.1810 117° Southeast 553 636 35,000  Level FlightAware ADS-B
Wed 11:08:32 AM 45.5730 16.3570 117° Southeast 557 641 35,000  Level FlightAware ADS-B
Wed 11:10:37 AM 45.4340 16.7480 117° Southeast 550 633 35,000  Level FlightAware ADS-B
Wed 11:11:42 AM 45.3620 16.9460 117° Southeast 548 631 35,000  Level FlightAware ADS-B
Wed 11:12:22 AM 45.3090 17.0910 117° Southeast 548 631 35,000  Level FlightAware ADS-B
Wed 11:13:12 AM 45.4740 16.6370 298° West 35,000  Level FlightAware ADS-B
Wed 11:13:32 AM 45.2270 17.3160 117° Southeast 552 635 35,000  Level FlightAware ADS-B
Wed 11:14:17 AM 45.1790 17.4510 117° Southeast 552 635 35,000  Level FlightAware ADS-B
Wed 11:14:57 AM 45.1390 17.5600 117° Southeast 552 635 35,000  Level FlightAware ADS-B
Wed 11:15:42 AM 45.0750 17.7280 118° Southeast 559 643 35,000  Level FlightAware ADS-B
Wed 11:16:37 AM 45.0100 17.8990 118° Southeast 559 643 35,000  Level FlightAware ADS-B
Wed 11:17:22 AM 44.9520 18.0490 119° Southeast 560 644 35,000  Level FlightAware ADS-B
Wed 11:18:02 AM 44.9050 18.1730 118° Southeast 561 646 35,000  Level FlightAware ADS-B
Wed 11:18:37 AM 44.8560 18.2990 119° Southeast 563 648 35,000  Level FlightAware ADS-B
Wed 11:19:27 AM 44.7910 18.4680 118° Southeast 560 644 35,000  Level FlightAware ADS-B
Wed 11:20:12 AM 44.7320 18.6190 119° Southeast 558 642 35,000  Level FlightAware ADS-B
Wed 11:20:57 AM 44.6800 18.7510 119° Southeast 554 638 35,000  Level FlightAware ADS-B
Wed 11:21:37 AM 44.6310 18.8750 119° Southeast 551 634 35,000  Level FlightAware ADS-B
Wed 11:22:17 AM 44.5790 19.0080 119° Southeast 553 636 35,000  Level FlightAware ADS-B
Wed 11:23:02 AM 44.5230 19.1490 119° Southeast 551 634 35,000  Level FlightAware ADS-B
Wed 11:23:42 AM 44.4720 19.2760 119° Southeast 551 634 35,000  Level FlightAware ADS-B
Wed 11:24:22 AM 44.4220 19.4000 119° Southeast 553 636 35,000  Level FlightAware ADS-B
Wed 11:24:57 AM 44.3830 19.4980 119° Southeast 550 633 35,000  Level FlightAware ADS-B
Wed 11:25:47 AM 44.3260 19.6390 119° Southeast 549 632 35,000  Level FlightAware ADS-B
Wed 11:26:32 AM 44.2690 19.7790 120° Southeast 550 633 35,000  Level FlightAware ADS-B
Wed 11:27:02 AM 44.2280 19.8790 120° Southeast 552 635 35,000  Level FlightAware ADS-B
Wed 11:27:57 AM 44.1580 20.0500 120° Southeast 554 638 35,000  Level FlightAware ADS-B
Wed 11:28:37 AM 44.1050 20.1780 120° Southeast 552 635 35,000  Level FlightAware ADS-B
Wed 11:29:32 AM 44.0370 20.3430 120° Southeast 543 625 35,000  Level FlightAware ADS-B
Wed 11:30:17 AM 43.9780 20.4850 120° Southeast 546 628 35,000  Level FlightAware ADS-B
Wed 11:30:57 AM 43.9270 20.6070 120° Southeast 545 627 35,000  Level FlightAware ADS-B
Wed 11:31:37 AM 43.8750 20.7300 120° Southeast 548 631 35,000  Level FlightAware ADS-B
Wed 11:32:22 AM 43.8170 20.8680 120° Southeast 552 635 35,000  Level FlightAware ADS-B
Wed 11:33:02 AM 43.7650 20.9910 120° Southeast 549 632 35,000  Level FlightAware ADS-B
Wed 11:33:42 AM 43.7150 21.1080 121° Southeast 546 628 35,000  Level FlightAware ADS-B
Wed 11:34:27 AM 43.6590 21.2390 121° Southeast 545 627 35,000  Level FlightAware ADS-B
Wed 11:35:07 AM 43.6040 21.3680 120° Southeast 550 633 35,000  Level FlightAware ADS-B
Wed 11:35:52 AM 43.5470 21.4980 121° Southeast 550 633 35,000  Level FlightAware ADS-B
Wed 11:36:32 AM 43.4990 21.6100 121° Southeast 549 632 35,000  Level FlightAware ADS-B
Wed 11:37:17 AM 43.4350 21.7570 121° Southeast 545 627 35,000  Level FlightAware ADS-B
Wed 11:37:57 AM 43.3830 21.8740 121° Southeast 545 627 35,000  Level FlightAware ADS-B
Wed 11:38:37 AM 43.3310 21.9940 121° Southeast 548 631 35,000  Level FlightAware ADS-B
Wed 11:39:22 AM 43.2740 22.1240 121° Southeast 546 628 35,000  Level FlightAware ADS-B
Wed 11:40:02 AM 43.2210 22.2440 121° Southeast 548 631 35,000  Level FlightAware ADS-B
Wed 11:40:42 AM 43.1690 22.3610 121° Southeast 550 633 35,000  Level FlightAware ADS-B
Wed 11:41:27 AM 43.1080 22.4970 122° Southeast 548 631 35,000  Level FlightAware ADS-B
Wed 11:42:07 AM 43.0550 22.6160 121° Southeast 550 633 35,000  Level FlightAware ADS-B
Wed 11:42:47 AM 43.0110 22.7410 116° Southeast 550 633 35,000  Level FlightAware ADS-B
Wed 11:43:32 AM 42.9920 22.8890 100° East 546 628 35,000  Level FlightAware ADS-B
Wed 11:44:12 AM 42.9730 23.0270 101° East 548 631 35,000  Level FlightAware ADS-B
Wed 11:44:52 AM 42.9560 23.1630 100° East 549 632 35,000  Level FlightAware ADS-B
Wed 11:45:37 AM 42.9360 23.3170 100° East 547 629 35,000  Level FlightAware ADS-B
Wed 11:46:17 AM 42.9180 23.4540 100° East 547 629 35,000  Level FlightAware ADS-B
Wed 11:47:02 AM 42.8980 23.6050 100° East 548 631 35,000  Level FlightAware ADS-B
Wed 11:47:52 AM 42.8770 23.7610 100° East 548 631 35,000  Level FlightAware ADS-B
Wed 11:48:32 AM 42.8590 23.8900 101° East 548 631 35,000  Level FlightAware ADS-B
Wed 11:49:22 AM 42.8380 24.0470 100° East 548 631 35,000  Level FlightAware ADS-B
Wed 11:49:57 AM 42.8190 24.1780 101° East 546 628 35,000  Level FlightAware ADS-B
Wed 11:50:52 AM 42.7960 24.3480 100° East 545 627 35,000  Level FlightAware ADS-B
Wed 11:51:42 AM 42.7710 24.5210 101° East 545 627 35,000  Level FlightAware ADS-B
Wed 11:52:52 AM 42.7380 24.7540 101° East 547 629 35,000  Level FlightAware ADS-B
Wed 11:53:32 AM 42.7180 24.8880 101° East 548 631 35,000  Level FlightAware ADS-B
Wed 11:54:27 AM 42.6910 25.0740 101° East 548 631 35,000  Level FlightAware ADS-B
Wed 11:55:12 AM 42.6670 25.2390 101° East 547 629 35,000  Level FlightAware ADS-B
Wed 11:55:52 AM 42.6480 25.3640 102° East 548 631 35,000  Level FlightAware ADS-B
Wed 11:56:32 AM 42.6280 25.4980 101° East 549 632 35,000  Level FlightAware ADS-B
Wed 11:57:17 AM 42.6030 25.6630 102° East 548 631 35,000  Level FlightAware ADS-B
Wed 11:57:57 AM 42.5830 25.7910 102° East 545 627 35,000  Level FlightAware ADS-B
Wed 11:58:57 AM 42.5530 25.9830 102° East 537 618 35,000  Level FlightAware ADS-B
Wed 11:59:37 AM 42.5300 26.1350 102° East 536 617 35,000  Level FlightAware ADS-B
Wed 12:00:17 PM 42.5080 26.2700 102° East 536 617 35,000  Level FlightAware ADS-B
Wed 12:01:02 PM 42.4850 26.4170 102° East 535 616 35,000  Level FlightAware ADS-B
Wed 12:02:02 PM 42.4560 26.6000 102° East 536 617 35,000  Level FlightAware ADS-B
Wed 12:02:42 PM 42.4310 26.7490 103° East 537 618 35,000  Level FlightAware ADS-B
Wed 12:03:22 PM 42.4100 26.8800 102° East 536 617 35,000  Level FlightAware ADS-B
Wed 12:03:57 PM 42.3910 26.9920 103° East 535 616 35,000  Level FlightAware ADS-B
Wed 12:04:47 PM 42.3660 27.1450 102° East 536 617 35,000  Level FlightAware ADS-B
Wed 12:05:22 PM 42.3500 27.2380 103° East 536 617 35,000  Level FlightAware ADS-B
Wed 12:07:07 PM 42.2880 27.6020 103° East 537 618 35,000  Level FlightAware ADS-B
Wed 12:07:47 PM 42.2650 27.7390 103° East 536 617 35,000  Level FlightAware ADS-B
Wed 12:08:32 PM 42.2410 27.8750 103° East 534 615 35,000  Level FlightAware ADS-B
Wed 12:09:12 PM 42.2170 28.0130 103° East 533 613 35,000  Level FlightAware ADS-B
Wed 12:09:52 PM 42.1970 28.1300 103° East 533 613 35,000  Level FlightAware ADS-B
Wed 12:10:32 PM 42.1720 28.2690 104° East 535 616 35,000  Level FlightAware ADS-B
Wed 12:12:02 PM 42.1190 28.5650 103° East 539 620 35,000  Level FlightAware ADS-B
Wed 12:12:37 PM 42.0960 28.6770 105° East 537 618 35,000  Level FlightAware ADS-B
Wed 12:13:32 PM 42.0500 28.8250 113° Southeast 535 616 35,000  Level FlightAware ADS-B
Wed 12:14:17 PM 41.9870 28.9690 120° Southeast 536 617 35,000  Level FlightAware ADS-B
Wed 12:15:02 PM 41.9250 29.1010 122° Southeast 534 615 35,000  Level FlightAware ADS-B
Wed 12:15:47 PM 41.8640 29.2280 123° Southeast 539 620 35,000  Level FlightAware ADS-B
Wed 12:16:27 PM 41.8110 29.3400 122° Southeast 538 619 35,000  Level FlightAware ADS-B
Wed 12:17:07 PM 41.7580 29.4510 123° Southeast 539 620 35,000  Level FlightAware ADS-B
Wed 12:17:52 PM 41.6980 29.5780 122° Southeast 540 621 35,000  Level FlightAware ADS-B
Wed 12:18:32 PM 41.6430 29.6920 123° Southeast 543 625 35,000  Level FlightAware ADS-B
Wed 12:19:17 PM 41.5820 29.8180 123° Southeast 540 621 35,000  Level FlightAware ADS-B
Wed 12:19:57 PM 41.5270 29.9320 123° Southeast 544 626 35,000  Level FlightAware ADS-B
Wed 12:20:37 PM 41.4730 30.0440 123° Southeast 543 625 35,000  Level FlightAware ADS-B
Wed 12:21:22 PM 41.4120 30.1690 123° Southeast 538 619 35,000  Level FlightAware ADS-B
Wed 12:22:17 PM 41.3420 30.3170 122° Southeast 538 619 35,000  Level FlightAware ADS-B
Wed 12:22:57 PM 41.2840 30.4330 124° Southeast 542 624 35,000  Level FlightAware ADS-B
Wed 12:23:52 PM 41.2040 30.5940 123° Southeast 541 623 35,000  Level FlightAware ADS-B
Wed 12:24:37 PM 41.1510 30.7060 122° Southeast 541 623 35,000  Level FlightAware ADS-B
Wed 12:25:17 PM 41.0890 30.8260 124° Southeast 540 621 35,000  Level FlightAware ADS-B
Wed 12:26:02 PM 41.0230 30.9570 124° Southeast 540 621 35,000  Level FlightAware ADS-B
Wed 12:26:37 PM 40.9790 31.0460 123° Southeast 539 620 35,000  Level FlightAware ADS-B
Wed 12:27:22 PM 40.9130 31.1770 124° Southeast 539 620 35,000  Level FlightAware ADS-B
Wed 12:28:07 PM 40.8500 31.3020 124° Southeast 542 624 35,000  Level FlightAware ADS-B
Wed 12:28:47 PM 40.8000 31.4020 123° Southeast 542 624 35,000  Level FlightAware ADS-B
Wed 12:29:32 PM 40.7320 31.5350 124° Southeast 542 624 35,000  Level FlightAware ADS-B
Wed 12:30:12 PM 40.6780 31.6420 124° Southeast 543 625 35,000  Level FlightAware ADS-B
Wed 12:30:52 PM 40.6210 31.7530 124° Southeast 545 627 35,000  Level FlightAware ADS-B
Wed 12:31:37 PM 40.5720 31.8880 116° Southeast 550 633 35,000  Level FlightAware ADS-B
Wed 12:32:17 PM 40.5330 32.0120 112° Southeast 547 629 35,000  Level FlightAware ADS-B
Wed 12:33:02 PM 40.4890 32.1480 113° Southeast 546 628 35,000  Level FlightAware ADS-B
Wed 12:33:42 PM 40.4500 32.2710 113° Southeast 549 632 35,000  Level FlightAware ADS-B
Wed 12:34:22 PM 40.4110 32.3930 113° Southeast 547 629 35,000  Level FlightAware ADS-B
Wed 12:35:07 PM 40.3660 32.5310 113° Southeast 549 632 35,000  Level FlightAware ADS-B
Wed 12:35:47 PM 40.3260 32.6540 113° Southeast 547 629 35,000  Level FlightAware ADS-B
Wed 12:36:32 PM 40.2820 32.7870 113° Southeast 550 633 35,000  Level FlightAware ADS-B
Wed 12:37:12 PM 40.2410 32.9130 113° Southeast 546 628 35,000  Level FlightAware ADS-B
Wed 12:37:52 PM 40.2020 33.0290 114° Southeast 547 629 35,000  Level FlightAware ADS-B
Wed 12:38:37 PM 40.1560 33.1680 113° Southeast 550 633 35,000  Level FlightAware ADS-B
Wed 12:39:17 PM 40.1150 33.2900 114° Southeast 549 632 35,000  Level FlightAware ADS-B
Wed 12:39:57 PM 40.0750 33.4110 113° Southeast 549 632 35,000  Level FlightAware ADS-B
Wed 12:40:42 PM 40.0300 33.5450 114° Southeast 548 631 35,000  Level FlightAware ADS-B
Wed 12:41:22 PM 39.9880 33.6680 114° Southeast 547 629 35,000  Level FlightAware ADS-B
Wed 12:42:07 PM 39.9420 33.8030 114° Southeast 546 628 35,000  Level FlightAware ADS-B
Wed 12:42:47 PM 39.9010 33.9230 114° Southeast 545 627 35,000  Level FlightAware ADS-B
Wed 12:43:27 PM 39.8600 34.0420 114° Southeast 544 626 35,000  Level FlightAware ADS-B
Wed 12:44:12 PM 39.8130 34.1810 114° Southeast 545 627 35,000  Level FlightAware ADS-B
Wed 12:44:52 PM 39.7720 34.2980 114° Southeast 545 627 35,000  Level FlightAware ADS-B
Wed 12:45:37 PM 39.7250 34.4330 114° Southeast 545 627 35,000  Level FlightAware ADS-B
Wed 12:46:17 PM 39.6840 34.5500 114° Southeast 543 625 35,000  Level FlightAware ADS-B
Wed 12:46:52 PM 39.6530 34.6420 114° Southeast 543 625 35,000  Level FlightAware ADS-B
Wed 12:47:57 PM 39.5840 34.8370 115° Southeast 543 625 35,000  Level FlightAware ADS-B
Wed 12:48:37 PM 39.5440 34.9520 114° Southeast 543 625 35,000  Level FlightAware ADS-B
Wed 12:49:17 PM 39.5090 35.0530 114° Southeast 543 625 35,000  Level FlightAware ADS-B
Wed 12:49:57 PM 39.4740 35.1540 114° Southeast 543 625 35,000  Level FlightAware ADS-B
Wed 12:50:37 PM 39.4390 35.2550 114° Southeast 543 625 35,000  Level FlightAware ADS-B
Wed 12:51:17 PM 39.4050 35.3560 114° Southeast 543 625 35,000  Level FlightAware ADS-B
Wed 12:52:07 PM 39.3610 35.4820 114° Southeast 543 625 35,000  Level FlightAware ADS-B
Wed 12:52:47 PM 39.3270 35.5830 113° Southeast 543 625 35,000  Level FlightAware ADS-B
Wed 12:53:27 PM 39.2920 35.6840 114° Southeast 543 625 35,000  Level FlightAware ADS-B
Wed 12:54:07 PM 39.2570 35.7850 114° Southeast 543 625 35,000  Level FlightAware ADS-B
Wed 12:54:47 PM 39.2220 35.8860 114° Southeast 543 625 35,000  Level FlightAware ADS-B
Wed 12:55:37 PM 39.1790 36.0110 114° Southeast 543 625 35,000  Level FlightAware ADS-B
Wed 12:56:17 PM 39.1440 36.1120 114° Southeast 543 625 35,000  Level FlightAware ADS-B
Wed 12:56:57 PM 39.1090 36.2130 114° Southeast 543 625 35,000  Level FlightAware ADS-B
Wed 12:57:37 PM 39.0750 36.3130 114° Southeast 543 625 35,000 163 Level FlightAware ADS-B
Wed 01:00:00 PM 38.9014 36.6294 125° Southeast  Level Estimated
Wed 01:01:00 PM 38.8283 36.7617 125° Southeast  Level Estimated
Wed 01:02:00 PM 38.7550 36.8937 125° Southeast  Level Estimated
Wed 01:03:00 PM 38.6816 37.0255 125° Southeast  Level Estimated
Wed 01:04:00 PM 38.6081 37.1570 126° Southeast  Level Estimated
Wed 01:05:00 PM 38.5344 37.2882 126° Southeast  Level Estimated
Wed 01:06:00 PM 38.4605 37.4192 126° Southeast  Level Estimated
Wed 01:07:00 PM 38.3865 37.5499 126° Southeast  Level Estimated
Wed 01:08:00 PM 38.3124 37.6803 126° Southeast  Level Estimated
Wed 01:09:00 PM 38.2381 37.8104 126° Southeast  Level Estimated
Wed 01:10:00 PM 38.1637 37.9403 126° Southeast  Level Estimated
Wed 01:11:00 PM 38.0891 38.0699 126° Southeast  Level Estimated
Wed 01:12:00 PM 38.0144 38.1993 126° Southeast  Level Estimated
Wed 01:13:00 PM 37.9395 38.3284 126° Southeast  Level Estimated
Wed 01:14:00 PM 37.8646 38.4572 126° Southeast  Level Estimated
Wed 01:15:00 PM 37.7894 38.5858 126° Southeast  Level Estimated
Wed 01:16:00 PM 37.7142 38.7141 127° Southeast  Level Estimated
Wed 01:17:00 PM 37.6387 38.8421 127° Southeast  Level Estimated
Wed 01:18:00 PM 37.5632 38.9699 127° Southeast  Level Estimated
Wed 01:19:00 PM 37.4875 39.0974 127° Southeast  Level Estimated
Wed 01:20:00 PM 37.4117 39.2247 127° Southeast  Level Estimated
Wed 01:21:00 PM 37.3357 39.3517 127° Southeast  Level Estimated
Wed 01:21:32 PM 37.3810 40.5210 127° Southeast 525 604 39,000  Level FlightAware ADS-B
Wed 01:22:17 PM 37.3270 40.6480 118° Southeast 524 603 39,000  Level FlightAware ADS-B
Wed 01:22:57 PM 37.2820 40.7500 119° Southeast 525 604 39,000  Level FlightAware ADS-B
Wed 01:23:37 PM 37.2350 40.8580 119° Southeast 526 605 39,000  Level FlightAware ADS-B
Wed 01:24:22 PM 37.1810 40.9820 119° Southeast 528 608 39,000  Level FlightAware ADS-B
Wed 01:25:02 PM 37.1320 41.0900 120° Southeast 530 610 39,000  Level FlightAware ADS-B
Wed 01:25:47 PM 37.0680 41.1990 126° Southeast 528 608 39,000  Level FlightAware ADS-B
Wed 01:26:27 PM 37.0000 41.2870 134° Southeast 523 602 39,000  Level FlightAware ADS-B
Wed 01:27:07 PM 36.9270 41.3610 141° Southeast 518 596 39,000  Level FlightAware ADS-B
Wed 01:27:52 PM 36.8400 41.4390 144° Southeast 517 595 39,000  Level FlightAware ADS-B
Wed 01:28:32 PM 36.7620 41.5080 145° Southeast 515 593 39,000  Level FlightAware ADS-B
Wed 01:29:12 PM 36.6830 41.5800 144° Southeast 516 594 39,000  Level FlightAware ADS-B
Wed 01:29:57 PM 36.5970 41.6560 145° Southeast 517 595 39,000  Level FlightAware ADS-B
Wed 01:30:37 PM 36.5230 41.7360 139° Southeast 520 598 39,000  Level FlightAware ADS-B
Wed 01:31:22 PM 36.4470 41.8320 135° Southeast 519 597 39,000  Level FlightAware ADS-B
Wed 01:32:02 PM 36.3820 41.9130 135° Southeast 520 598 39,000  Level FlightAware ADS-B
Wed 01:32:42 PM 36.3130 41.9980 135° Southeast 521 600 39,000  Level FlightAware ADS-B
Wed 01:33:27 PM 36.2340 42.0950 135° Southeast 522 601 39,000  Level FlightAware ADS-B
Wed 01:34:07 PM 36.1660 42.1790 135° Southeast 521 600 39,000  Level FlightAware ADS-B
Wed 01:34:52 PM 36.0900 42.2710 136° Southeast 519 597 39,000  Level FlightAware ADS-B
Wed 01:35:32 PM 36.0240 42.3530 135° Southeast 519 597 39,000  Level FlightAware ADS-B
Wed 01:36:17 PM 35.9440 42.4500 136° Southeast 519 597 39,000  Level FlightAware ADS-B
Wed 01:36:57 PM 35.8770 42.5320 135° Southeast 518 596 39,000  Level FlightAware ADS-B
Wed 01:37:37 PM 35.8090 42.6150 135° Southeast 516 594 39,000  Level FlightAware ADS-B
Wed 01:38:22 PM 35.7330 42.7060 136° Southeast 515 593 39,000  Level FlightAware ADS-B
Wed 01:39:02 PM 35.6640 42.7890 136° Southeast 514 592 39,000  Level FlightAware ADS-B
Wed 01:39:42 PM 35.5960 42.8720 135° Southeast 515 593 39,000  Level FlightAware ADS-B
Wed 01:40:27 PM 35.5210 42.9620 136° Southeast 515 593 39,000  Level FlightAware ADS-B
Wed 01:41:07 PM 35.4530 43.0440 135° Southeast 515 593 39,000  Level FlightAware ADS-B
Wed 01:41:47 PM 35.3840 43.1250 136° Southeast 514 592 39,000  Level FlightAware ADS-B
Wed 01:42:32 PM 35.3060 43.2180 136° Southeast 512 589 39,000  Level FlightAware ADS-B
Wed 01:43:12 PM 35.2390 43.2980 136° Southeast 511 588 39,000  Level FlightAware ADS-B
Wed 01:43:57 PM 35.1640 43.3870 136° Southeast 511 588 39,000  Level FlightAware ADS-B
Wed 01:44:37 PM 35.0950 43.4690 136° Southeast 512 589 39,000  Level FlightAware ADS-B
Wed 01:45:22 PM 35.0170 43.5610 136° Southeast 512 589 39,000  Level FlightAware ADS-B
Wed 01:46:02 PM 34.9500 43.6400 136° Southeast 513 590 39,000  Level FlightAware ADS-B
Wed 01:46:42 PM 34.8810 43.7210 136° Southeast 515 593 39,000  Level FlightAware ADS-B
Wed 01:47:27 PM 34.8050 43.8100 136° Southeast 515 593 39,000  Level FlightAware ADS-B
Wed 01:48:07 PM 34.7360 43.8900 136° Southeast 514 592 39,000  Level FlightAware ADS-B
Wed 01:48:47 PM 34.6670 43.9700 136° Southeast 514 592 39,000  Level FlightAware ADS-B
Wed 01:49:32 PM 34.5880 44.0570 138° Southeast 508 585 39,000  Level FlightAware ADS-B
Wed 01:50:12 PM 34.5130 44.1270 142° Southeast 507 583 39,000  Level FlightAware ADS-B
Wed 01:50:57 PM 34.4290 44.2060 142° Southeast 508 585 39,000  Level FlightAware ADS-B
Wed 01:51:37 PM 34.3560 44.2740 142° Southeast 511 588 39,000  Level FlightAware ADS-B
Wed 01:52:17 PM 34.2790 44.3460 142° Southeast 513 590 39,000  Level FlightAware ADS-B
Wed 01:53:02 PM 34.1950 44.4240 142° Southeast 512 589 39,000  Level FlightAware ADS-B
Wed 01:53:42 PM 34.1200 44.4940 142° Southeast 511 588 39,000  Level FlightAware ADS-B
Wed 01:54:17 PM 34.0570 44.5520 143° Southeast 510 587 39,000  Level FlightAware ADS-B
Wed 01:55:02 PM 33.9750 44.6280 142° Southeast 512 589 39,000  Level FlightAware ADS-B
Wed 01:55:52 PM 33.8840 44.7110 143° Southeast 515 593 39,000  Level FlightAware ADS-B
Wed 01:56:32 PM 33.8020 44.7870 142° Southeast 519 597 39,000  Level FlightAware ADS-B
Wed 01:57:12 PM 33.7320 44.8510 143° Southeast 521 600 39,000  Level FlightAware ADS-B
Wed 01:57:57 PM 33.6410 44.9360 142° Southeast 520 598 39,000  Level FlightAware ADS-B
Wed 01:58:37 PM 33.5640 45.0100 141° Southeast 512 589 39,000  Level FlightAware ADS-B
Wed 01:59:17 PM 33.4920 45.0780 142° Southeast 510 587 39,000  Level FlightAware ADS-B
Wed 02:00:02 PM 33.4090 45.1570 142° Southeast 508 585 39,000  Level FlightAware ADS-B
Wed 02:00:42 PM 33.3350 45.2280 141° Southeast 506 582 39,000  Level FlightAware ADS-B
Wed 02:01:27 PM 33.2530 45.3040 142° Southeast 503 579 39,000  Level FlightAware ADS-B
Wed 02:02:22 PM 33.1580 45.3950 141° Southeast 503 579 39,000  Level FlightAware ADS-B
Wed 02:03:02 PM 33.0820 45.4660 142° Southeast 501 577 39,000  Level FlightAware ADS-B
Wed 02:03:42 PM 33.0210 45.5250 141° Southeast 501 577 39,000  Level FlightAware ADS-B
Wed 02:04:22 PM 32.9600 45.5840 141° Southeast 501 577 39,000  Level FlightAware ADS-B
Wed 02:05:02 PM 32.8990 45.6430 141° Southeast 501 577 39,000  Level FlightAware ADS-B
Wed 02:05:52 PM 32.8220 45.7170 141° Southeast 501 577 39,000  Level FlightAware ADS-B
Wed 02:06:32 PM 32.7610 45.7760 141° Southeast 501 577 39,000  Level FlightAware ADS-B
Wed 02:07:12 PM 32.7000 45.8350 141° Southeast 501 577 39,000  Level FlightAware ADS-B
Wed 02:07:52 PM 32.6380 45.8940 141° Southeast 501 577 39,000  Level FlightAware ADS-B
Wed 02:08:42 PM 32.5620 45.9680 141° Southeast 501 577 39,000  Level FlightAware ADS-B
Wed 02:09:22 PM 32.5010 46.0260 141° Southeast 501 577 39,000  Level FlightAware ADS-B
Wed 02:10:02 PM 32.4390 46.0850 141° Southeast 501 577 39,000  Level FlightAware ADS-B
Wed 02:10:42 PM 32.3780 46.1440 141° Southeast 501 577 39,000  Level FlightAware ADS-B
Wed 02:11:22 PM 32.3170 46.2030 141° Southeast 501 577 39,000  Level FlightAware ADS-B
Wed 02:12:02 PM 32.2560 46.2610 141° Southeast 501 577 39,000  Level FlightAware ADS-B
Wed 02:14:00 PM 32.0999 46.4883 129° Southeast  Level Estimated
Wed 02:15:00 PM 32.0204 46.6036 129° Southeast  Level Estimated
Wed 02:16:00 PM 31.9408 46.7188 129° Southeast  Level Estimated
Wed 02:17:00 PM 31.8611 46.8336 129° Southeast  Level Estimated
Wed 02:18:00 PM 31.7812 46.9484 129° Southeast  Level Estimated
Wed 02:19:00 PM 31.7013 47.0629 129° Southeast  Level Estimated
Wed 02:20:00 PM 31.6213 47.1772 129° Southeast  Level Estimated
Wed 02:21:00 PM 31.5411 47.2913 129° Southeast  Level Estimated
Wed 02:22:00 PM 31.4609 47.4052 130° Southeast  Level Estimated
Wed 02:23:00 PM 31.3806 47.5189 130° Southeast  Level Estimated
Wed 02:23:32 PM 30.9010 47.5560 130° Southeast 507 583 39,000  Level FlightAware ADS-B
Wed 02:24:12 PM 30.8260 47.6250 142° Southeast 506 582 39,000  Level FlightAware ADS-B
Wed 02:25:17 PM 30.7120 47.7310 141° Southeast 506 582 39,000  Level FlightAware ADS-B
Wed 02:25:57 PM 30.6280 47.8080 142° Southeast 508 585 39,000  Level FlightAware ADS-B
Wed 02:26:42 PM 30.5570 47.8740 141° Southeast 509 586 39,000  Level FlightAware ADS-B
Wed 02:27:22 PM 30.4860 47.9390 142° Southeast 508 585 39,000  Level FlightAware ADS-B
Wed 02:28:02 PM 30.4060 48.0120 142° Southeast 508 585 39,000  Level FlightAware ADS-B
Wed 02:28:47 PM 30.3210 48.0900 142° Southeast 509 586 39,000  Level FlightAware ADS-B
Wed 02:29:22 PM 30.2530 48.1520 142° Southeast 509 586 39,000  Level FlightAware ADS-B
Wed 02:30:07 PM 30.1820 48.2190 141° Southeast 509 586 39,000  Level FlightAware ADS-B
Wed 02:31:07 PM 30.0700 48.3210 142° Southeast 508 585 39,000  Level FlightAware ADS-B
Wed 02:31:47 PM 29.9850 48.3960 143° Southeast 507 583 39,000  Level FlightAware ADS-B
Wed 02:32:52 PM 29.8670 48.4980 143° Southeast 496 571 39,000  Level FlightAware ADS-B
Wed 02:33:32 PM 29.7760 48.5530 152° Southeast 492 566 39,000  Level FlightAware ADS-B
Wed 02:34:17 PM 29.6860 48.6060 153° Southeast 495 570 39,000  Level FlightAware ADS-B
Wed 02:35:02 PM 29.5900 48.6620 153° Southeast 496 571 39,000  Level FlightAware ADS-B
Wed 02:36:02 PM 29.4770 48.7280 153° Southeast 498 573 39,000  Level FlightAware ADS-B
Wed 02:36:42 PM 29.3910 48.7780 153° Southeast 500 575 39,000  Level FlightAware ADS-B
Wed 02:37:17 PM 29.3200 48.8170 154° Southeast 499 574 39,000  Level FlightAware ADS-B
Wed 02:38:17 PM 29.1950 48.8820 156° South 500 575 39,000  Level FlightAware ADS-B
Wed 02:39:02 PM 29.1020 48.9520 147° Southeast 509 586 39,000  Level FlightAware ADS-B
Wed 02:39:37 PM 29.0450 49.0070 140° Southeast 513 590 39,000  Level FlightAware ADS-B
Wed 02:40:22 PM 28.9740 49.0830 137° Southeast 513 590 39,000  Level FlightAware ADS-B
Wed 02:41:02 PM 28.9150 49.1450 137° Southeast 513 590 39,000  Level FlightAware ADS-B
Wed 02:41:42 PM 28.8170 49.2410 139° Southeast 514 592 39,000  Level FlightAware ADS-B
Wed 02:42:27 PM 28.7510 49.3090 138° Southeast 514 592 39,000  Level FlightAware ADS-B
Wed 02:43:12 PM 28.6610 49.4010 138° Southeast 515 593 39,000  Level FlightAware ADS-B
Wed 02:44:07 PM 28.5720 49.4920 138° Southeast 517 595 39,000  Level FlightAware ADS-B
Wed 02:44:47 PM 28.4920 49.5740 138° Southeast 522 601 39,000  Level FlightAware ADS-B
Wed 02:45:42 PM 28.3890 49.6780 138° Southeast 522 601 39,000  Level FlightAware ADS-B
Wed 02:46:27 PM 28.3140 49.7450 142° Southeast 518 596 39,000  Level FlightAware ADS-B
Wed 02:47:02 PM 28.2400 49.8030 145° Southeast 517 595 39,000  Level FlightAware ADS-B
Wed 02:47:42 PM 28.1580 49.8680 145° Southeast 516 594 39,000  Level FlightAware ADS-B
Wed 02:48:37 PM 28.0560 49.9470 146° Southeast 516 594 39,000  Level FlightAware ADS-B
Wed 02:49:12 PM 27.9940 49.9960 145° Southeast 516 594 39,000  Level FlightAware ADS-B
Wed 02:49:52 PM 27.9280 50.0490 145° Southeast 516 594 39,000  Level FlightAware ADS-B
Wed 02:50:42 PM 27.8450 50.1150 145° Southeast 516 594 39,000  Level FlightAware ADS-B
Wed 02:51:22 PM 27.7780 50.1670 146° Southeast 516 594 39,000  Level FlightAware ADS-B
Wed 02:52:02 PM 27.7120 50.2200 145° Southeast 516 594 39,000  Level FlightAware ADS-B
Wed 02:52:42 PM 27.6450 50.2720 145° Southeast 516 594 39,000  Level FlightAware ADS-B
Wed 02:53:32 PM 27.5620 50.3380 145° Southeast 516 594 39,000  Level FlightAware ADS-B
Wed 02:54:12 PM 27.4960 50.3900 145° Southeast 516 594 39,000  Level FlightAware ADS-B
Wed 02:54:52 PM 27.4290 50.4430 145° Southeast 516 594 39,000  Level FlightAware ADS-B
Wed 02:55:32 PM 27.3630 50.4950 145° Southeast 516 594 39,000  Level FlightAware ADS-B
Wed 02:56:12 PM 27.2960 50.5480 145° Southeast 516 594 39,000  Level FlightAware ADS-B
Wed 02:56:52 PM 27.2300 50.6000 145° Southeast 516 594 39,000  Level FlightAware ADS-B
Wed 02:57:42 PM 27.1470 50.6660 145° Southeast 516 594 39,000  Level FlightAware ADS-B
Wed 02:58:12 PM 26.9450 50.8910 135° Southeast 517 595 39,000  Level FlightAware ADS-B
Wed 02:58:52 PM 26.8990 50.9870 118° Southeast 518 596 39,000  Level FlightAware ADS-B
Wed 02:59:32 PM 26.8640 51.0820 112° Southeast 520 598 39,000  Level FlightAware ADS-B
Wed 03:00:17 PM 26.8190 51.2020 113° Southeast 520 598 39,000  Level FlightAware ADS-B
Wed 03:00:57 PM 26.7820 51.2940 114° Southeast 522 601 39,000  Level FlightAware ADS-B
Wed 03:01:42 PM 26.7340 51.4050 116° Southeast 523 602 39,000  Level FlightAware ADS-B
Wed 03:02:22 PM 26.6910 51.5090 115° Southeast 519 597 39,000  Level FlightAware ADS-B
Wed 03:03:02 PM 26.6520 51.6020 115° Southeast 521 600 39,000  Level FlightAware ADS-B
Wed 03:03:47 PM 26.6050 51.7130 115° Southeast 525 604 39,000  Level FlightAware ADS-B
Wed 03:04:27 PM 26.5660 51.8060 115° Southeast 525 604 39,000  Level FlightAware ADS-B
Wed 03:05:12 PM 26.5180 51.9200 115° Southeast 523 602 39,000  Level FlightAware ADS-B
Wed 03:05:52 PM 26.4750 52.0210 115° Southeast 522 601 39,000  Level FlightAware ADS-B
Wed 03:06:32 PM 26.4340 52.1170 115° Southeast 522 601 39,000 -494 Level FlightAware ADS-B
Wed 03:07:17 PM 26.3860 52.2290 116° Southeast 520 598 38,300 -918 Descending FlightAware ADS-B
Wed 03:07:57 PM 26.3480 52.3200 115° Southeast 513 590 37,700 -1,050 Descending FlightAware ADS-B
Wed 03:08:37 PM 26.3070 52.4140 116° Southeast 508 585 36,900 -1,689 Descending FlightAware ADS-B
Wed 03:10:12 PM 26.2140 52.6330 115° Southeast 497 572 33,900 -2,118 Descending FlightAware ADS-B
Wed 03:11:27 PM 26.1400 52.8030 116° Southeast 495 570 30,900 -2,028 Descending FlightAware ADS-B
Wed 03:12:37 PM 26.0680 52.9700 116° Southeast 474 545 29,000 -794 Descending FlightAware ADS-B
Wed 03:15:00 PM 25.9644 53.2836 110° East  Level Estimated
Wed 03:16:00 PM 25.9207 53.4150 110° East  Level Estimated
Wed 03:17:00 PM 25.8769 53.5463 110° East  Level Estimated
Wed 03:18:00 PM 25.8330 53.6775 110° East  Level Estimated
Wed 03:19:00 PM 25.7889 53.8086 110° East  Level Estimated
Wed 03:20:00 PM 25.7448 53.9397 110° East  Level Estimated
Wed 03:21:00 PM 25.7005 54.0706 111° Southeast  Level Estimated
Wed 03:22:00 PM 25.6561 54.2014 111° Southeast  Level Estimated
Wed 03:23:00 PM 25.6116 54.3321 111° Southeast  Level Estimated
Wed 03:24:00 PM 25.5670 54.4628 111° Southeast  Level Estimated
Wed 03:25:00 PM 25.5223 54.5933 111° Southeast  Level Estimated
Wed 03:26:00 PM 25.4774 54.7237 111° Southeast  Level Estimated
Wed 03:27:00 PM 25.4324 54.8541 111° Southeast  Level Estimated
Wed 03:28:00 PM 25.3874 54.9843 111° Southeast  Level Estimated
Wed 03:29:00 PM 25.3422 55.1144 111° Southeast  Level Estimated
Wed 03:30:00 PM 25.2969 55.2445 111° Southeast  Level Estimated
Wed 03:31:00 PM 25.2550 55.3643 111° Southeast  Level Estimated
Wed 03:32:00 PM 25.2550 55.3643 211° Southwest  Level Estimated
Wed 03:33:00 PM 25.2550 55.3643 211° Southwest  Level Estimated
Wed 03:34:00 PM 25.2550 55.3643 211° Southwest  Level Estimated
Wed 03:34:22 PM 25.6170 54.7740 211° Southwest 260 299 12,700  Level FlightAware ADS-B
Wed 03:34:47 PM 25.6500 54.7710 355° North 255 293 12,100 -900 Descending FlightAware ADS-B
Wed 03:35:02 PM 25.6620 54.7580 316° Northwest 264 304 12,100  Level FlightAware ADS-B
Wed 03:35:42 PM 25.6880 54.7120 302° West 259 298 12,100  Level FlightAware ADS-B
Wed 03:36:27 PM 25.7170 54.6580 301° West 262 302 12,100  Level FlightAware ADS-B
Wed 03:37:07 PM 25.7430 54.6130 303° West 262 302 12,100 -525 Level FlightAware ADS-B
Wed 03:37:47 PM 25.7650 54.5650 297° West 266 306 11,400 -982 Descending FlightAware ADS-B
Wed 03:38:02 PM 25.7610 54.5430 259° West 271 312 11,200 -600 Descending FlightAware ADS-B
Wed 03:38:17 PM 25.7490 54.5270 230° Southwest 271 312 11,100 -109 Descending FlightAware ADS-B
Wed 03:38:57 PM 25.7100 54.4900 221° Southwest 281 323 11,100  Level FlightAware ADS-B
Wed 03:39:12 PM 25.6910 54.4810 203° Southwest 277 319 11,100  Level FlightAware ADS-B
Wed 03:39:42 PM 25.6540 54.4930 164° South 281 323 11,100 -300 Level FlightAware ADS-B
Wed 03:39:52 PM 25.6460 54.5030 132° Southeast 283 326 10,900 -960 Descending FlightAware ADS-B
Wed 03:40:07 PM 25.6380 54.5220 115° Southeast 282 325 10,700 -873 Descending FlightAware ADS-B
Wed 03:40:47 PM 25.6270 54.5780 102° East 282 325 10,100 -424 Descending FlightAware ADS-B
Wed 03:41:32 PM 25.6140 54.6420 103° East 280 322 10,100  Level FlightAware ADS-B
Wed 03:42:12 PM 25.6030 54.6990 102° East 278 320 10,100  Level FlightAware ADS-B
Wed 03:42:52 PM 25.5950 54.7510 100° East 278 320 10,100  Level FlightAware ADS-B
Wed 03:43:37 PM 25.5880 54.8140 97° East 280 322 10,100  Level FlightAware ADS-B
Wed 03:44:17 PM 25.5840 54.8630 95° East 280 322 10,100  Level FlightAware ADS-B
Wed 03:44:57 PM 25.5790 54.9120 96° East 280 322 10,100 -212 Level FlightAware ADS-B
Wed 03:45:42 PM 25.5430 54.9900 117° Southeast 278 320 9,800 -480 Descending FlightAware ADS-B
Wed 03:46:12 PM 25.5220 55.0280 121° Southeast 281 323 9,500 -436 Descending FlightAware ADS-B
Wed 03:46:37 PM 25.5070 55.0540 123° Southeast 281 323 9,400 -120 Descending FlightAware ADS-B
Wed 03:47:02 PM 25.4920 55.0810 122° Southeast 281 323 9,400  Level FlightAware ADS-B
Wed 03:47:32 PM 25.4750 55.1130 120° Southeast 281 323 9,400  Level FlightAware ADS-B
Wed 03:48:02 PM 25.4580 55.1440 121° Southeast 281 323 9,400 -1,200 Level FlightAware ADS-B
Wed 03:48:17 PM 25.4390 55.1770 123° Southeast 268 308 8,500 -1,200 Descending FlightAware ADS-B
Wed 03:48:47 PM 25.4220 55.2110 119° Southeast 268 308 8,500  Level FlightAware ADS-B
Wed 03:49:07 PM 25.4120 55.2310 119° Southeast 268 308 8,500 -480 Level FlightAware ADS-B
Wed 03:49:37 PM 25.3910 55.2630 126° Southeast 266 306 8,100 -436 Descending FlightAware ADS-B
Wed 03:50:02 PM 25.3770 55.2890 121° Southeast 266 306 8,100  Level FlightAware ADS-B
Wed 03:50:37 PM 25.3550 55.3280 122° Southeast 266 306 8,100  Level FlightAware ADS-B
Wed 03:51:02 PM 25.3380 55.3590 121° Southeast 266 306 8,100  Level FlightAware ADS-B
Wed 03:51:27 PM 25.3220 55.3880 121° Southeast 266 306 8,100  Level FlightAware ADS-B
Wed 03:51:57 PM 25.2960 55.4340 122° Southeast 254 292 8,100  Level FlightAware ADS-B
Wed 03:52:22 PM 25.2840 55.4560 121° Southeast 227 261 8,100 -400 Level FlightAware ADS-B
Wed 03:52:57 PM 25.2640 55.4930 121° Southeast 219 252 7,700 -720 Descending FlightAware ADS-B
Wed 03:53:12 PM 25.2560 55.5080 121° Southeast 219 252 7,500 -900 Descending FlightAware ADS-B
Wed 03:53:37 PM 25.2430 55.5310 122° Southeast 220 253 7,100 -873 Descending FlightAware ADS-B
Wed 03:54:07 PM 25.2270 55.5590 122° Southeast 217 250 6,700 -982 Descending FlightAware ADS-B
Wed 03:54:32 PM 25.2130 55.5840 122° Southeast 219 252 6,200 -982 Descending FlightAware ADS-B
Wed 03:55:02 PM 25.1970 55.6120 122° Southeast 216 249 5,800 -800 Descending FlightAware ADS-B
Wed 03:55:32 PM 25.1820 55.6400 121° Southeast 212 244 5,400 -873 Descending FlightAware ADS-B
Wed 03:55:57 PM 25.1700 55.6620 121° Southeast 212 244 5,000 -720 Descending FlightAware ADS-B
Wed 03:56:22 PM 25.1570 55.6850 122° Southeast 206 237 4,800 -240 Descending FlightAware ADS-B
Wed 03:56:47 PM 25.1470 55.7060 118° Southeast 206 237 4,800 -300 Level FlightAware ADS-B
Wed 03:59:00 PM 25.2384 55.4170 289° West  Level Estimated
Wed 03:59:02 PM 25.1160 55.6100 289° West 208 239 4,000  Level FlightAware ADS-B
Wed 03:59:17 PM 25.1220 55.6010 306° West 202 232 3,900 -450 Descending FlightAware ADS-B
Wed 03:59:42 PM 25.1360 55.5750 301° West 197 227 3,700 -764 Descending FlightAware ADS-B
Wed 04:00:12 PM 25.1500 55.5490 301° West 193 222 3,200 -982 Descending FlightAware ADS-B
Wed 04:00:37 PM 25.1620 55.5280 302° West 193 222 2,800 -982 Descending FlightAware ADS-B
Wed 04:01:07 PM 25.1760 55.5030 302° West 185 213 2,300 -900 Descending FlightAware ADS-B
Wed 04:01:37 PM 25.1880 55.4820 302° West 171 197 1,900 -514 Descending FlightAware ADS-B
Wed 04:02:17 PM 25.2030 55.4530 300° West 171 197 1,700 -709 Descending FlightAware ADS-B
Wed 04:03:27 PM 25.2250 55.4150 303° West 142 163 600 -960 Descending FlightAware ADS-B
Wed 04:03:57 PM 25.2370 55.3930 301° West 143 165 100 -600 Descending FlightAware ADS-B
Wed 04:04:17 PM 25.2430 55.3830 304° West 122 140 100  Level FlightAware ADS-B
Wed 04:06:00 PM 25.2550 55.3643 305° West  Level Estimated
Wed 04:07:00 PM 25.2550 55.3643 211° Southwest  Level Estimated
Wed 04:08:00 PM 25.2550 55.3643 211° Southwest  Level Estimated
Wed 04:09:00 PM 25.2550 55.3643 211° Southwest  Level Estimated
Wed 04:10:00 PM 25.2550 55.3643 211° Southwest  Level Estimated
Wed 04:11:00 PM 25.2550 55.3643 211° Southwest  Level Estimated
Wed 04:12:00 PM 25.2550 55.3643 211° Southwest  Level Estimated
Wed 04:13:00 PM 25.2550 55.3643 211° Southwest  Level Estimated

Login

Don't have an account? Register now (free) for customized features, flight alerts, and more!